createdAt,value
2022-10-20T00:00:56.469Z,18.67
2022-10-20T00:03:24.073Z,24.77
2022-10-20T00:05:51.336Z,18.40
2022-10-20T00:08:18.156Z,15.88
2022-10-20T00:10:56.117Z,16.80
2022-10-20T00:13:23.826Z,13.60
2022-10-20T00:15:55.434Z,14.63
2022-10-20T00:18:23.365Z,11.95
2022-10-20T00:20:50.959Z,14.90
2022-10-20T00:23:17.757Z,14.27
2022-10-20T00:25:44.480Z,13.43
2022-10-20T00:28:11.464Z,12.63
2022-10-20T00:30:38.308Z,11.75
2022-10-20T00:33:05.585Z,14.90
2022-10-20T00:35:33.148Z,13.15
2022-10-20T00:38:00.052Z,12.23
2022-10-20T00:40:26.886Z,13.73
2022-10-20T00:42:53.672Z,14.60
2022-10-20T00:45:22.306Z,12.13
2022-10-20T00:47:52.298Z,19.52
2022-10-20T00:50:22.569Z,10.63
2022-10-20T00:52:49.660Z,16.00
2022-10-20T00:55:21.320Z,12.15
2022-10-20T00:57:50.296Z,12.90
2022-10-20T01:00:17.365Z,11.10
2022-10-20T01:02:47.346Z,12.27
2022-10-20T01:05:14.263Z,11.48
2022-10-20T01:07:41.120Z,10.82
2022-10-20T01:10:08.856Z,9.35
2022-10-20T01:12:40.361Z,10.80
2022-10-20T01:15:16.028Z,11.82
2022-10-20T01:17:50.587Z,9.50
2022-10-20T01:20:35.812Z,8.05
2022-10-20T01:23:27.126Z,9.55
2022-10-20T01:26:26.336Z,11.18
2022-10-20T01:28:58.293Z,14.15
2022-10-20T01:31:28.052Z,10.63
2022-10-20T01:34:02.485Z,8.32
2022-10-20T01:36:35.191Z,9.80
2022-10-20T01:39:06.510Z,13.65
2022-10-20T01:41:38.971Z,12.82
2022-10-20T01:44:09.839Z,11.48
2022-10-20T01:46:37.920Z,9.88
2022-10-20T01:49:05.333Z,11.43
2022-10-20T01:51:32.734Z,11.27
2022-10-20T01:53:59.698Z,9.88
2022-10-20T01:56:50.523Z,12.13
2022-10-20T01:59:48.980Z,10.52
2022-10-20T02:02:18.380Z,9.35
2022-10-20T02:05:24.294Z,11.32
2022-10-20T02:07:51.066Z,9.23
2022-10-20T02:10:24.894Z,8.85
2022-10-20T02:12:55.047Z,9.88
2022-10-20T02:15:25.267Z,10.10
2022-10-20T02:17:59.272Z,11.60
2022-10-20T02:20:27.210Z,9.35
2022-10-20T02:22:54.359Z,12.73
2022-10-20T02:25:22.201Z,10.48
2022-10-20T02:27:51.796Z,8.73
2022-10-20T02:30:18.971Z,8.93
2022-10-20T02:32:52.904Z,12.20
2022-10-20T02:35:27.517Z,10.60
2022-10-20T02:37:54.234Z,11.48
2022-10-20T02:40:22.359Z,10.70
2022-10-20T02:42:49.241Z,11.18
2022-10-20T02:45:16.243Z,14.00
2022-10-20T02:47:43.290Z,11.18
2022-10-20T02:50:10.529Z,12.38
2022-10-20T02:52:38.014Z,12.45
2022-10-20T02:55:05.993Z,14.13
2022-10-20T02:57:33.025Z,12.23
2022-10-20T03:00:00.013Z,10.73
2022-10-20T03:02:26.881Z,11.25
2022-10-20T03:04:53.588Z,11.45
2022-10-20T03:07:20.372Z,13.80
2022-10-20T03:09:47.064Z,10.60
2022-10-20T03:12:13.831Z,11.00
2022-10-20T03:14:42.750Z,13.10
2022-10-20T03:17:09.943Z,13.07
2022-10-20T03:19:36.767Z,9.65
2022-10-20T03:22:03.565Z,9.63
2022-10-20T03:24:30.327Z,14.98
2022-10-20T03:26:57.088Z,10.13
2022-10-20T03:29:23.847Z,12.55
2022-10-20T03:31:50.707Z,11.63
2022-10-20T03:34:17.492Z,10.27
2022-10-20T03:36:44.289Z,13.45
2022-10-20T03:39:11.077Z,11.43
2022-10-20T03:41:37.926Z,11.75
2022-10-20T03:44:04.752Z,11.77
2022-10-20T03:46:31.467Z,14.35
2022-10-20T03:48:58.240Z,12.35
2022-10-20T03:51:25.048Z,12.20
2022-10-20T03:53:51.767Z,12.82
2022-10-20T03:56:19.898Z,10.70
2022-10-20T03:58:46.916Z,11.57
2022-10-20T04:01:15.936Z,12.27
2022-10-20T04:03:43.652Z,11.02
2022-10-20T04:06:12.177Z,10.10
2022-10-20T04:11:05.899Z,10.25
2022-10-20T04:13:32.697Z,12.38
2022-10-20T04:16:00.027Z,10.55
2022-10-20T04:18:26.822Z,13.43
2022-10-20T04:20:53.509Z,10.70
2022-10-20T04:23:20.264Z,8.55
2022-10-20T04:25:48.546Z,10.10
2022-10-20T04:28:16.411Z,10.65
2022-10-20T04:30:43.505Z,10.32
2022-10-20T04:33:10.786Z,7.80
2022-10-20T04:35:37.758Z,12.93
2022-10-20T04:38:04.655Z,8.52
2022-10-20T04:40:31.476Z,8.60
2022-10-20T04:43:01.392Z,9.25
2022-10-20T04:45:28.511Z,8.95
2022-10-20T04:47:55.271Z,10.75
2022-10-20T04:50:22.008Z,8.23
2022-10-20T04:52:59.466Z,9.18
2022-10-20T04:55:26.240Z,8.45
2022-10-20T04:57:53.066Z,9.77
2022-10-20T05:00:19.905Z,9.55
2022-10-20T05:02:46.688Z,8.85
2022-10-20T05:05:13.479Z,9.15
2022-10-20T05:07:40.326Z,9.15
2022-10-20T05:10:07.578Z,8.48
2022-10-20T05:12:34.630Z,8.32
2022-10-20T05:15:01.646Z,8.90
2022-10-20T05:17:31.494Z,7.85
2022-10-20T05:19:58.322Z,9.27
2022-10-20T05:22:25.017Z,9.75
2022-10-20T05:24:51.801Z,7.85
2022-10-20T05:27:18.531Z,8.75
2022-10-20T05:29:45.301Z,7.55
2022-10-20T05:32:12.032Z,7.40
2022-10-20T05:34:39.287Z,9.88
2022-10-20T05:37:06.027Z,7.32
2022-10-20T05:39:32.747Z,8.43
2022-10-20T05:41:59.484Z,10.18
2022-10-20T05:44:26.241Z,11.05
2022-10-20T05:46:53.061Z,14.18
2022-10-20T05:49:19.904Z,10.65
2022-10-20T05:51:47.205Z,10.30
2022-10-20T05:54:14.529Z,8.90
2022-10-20T05:56:41.749Z,11.95
2022-10-20T05:59:10.053Z,9.57
2022-10-20T06:01:47.726Z,9.60
2022-10-20T06:04:19.604Z,8.93
2022-10-20T06:06:48.838Z,10.02
2022-10-20T06:09:16.145Z,11.05
2022-10-20T06:11:42.910Z,11.20
2022-10-20T06:14:10.159Z,10.30
2022-10-20T06:16:37.253Z,9.18
2022-10-20T06:19:05.253Z,12.50
2022-10-20T06:21:33.058Z,12.02
2022-10-20T06:24:01.011Z,8.32
2022-10-20T06:26:36.666Z,11.63
2022-10-20T06:29:08.327Z,12.02
2022-10-20T06:31:40.034Z,10.45
2022-10-20T06:34:08.707Z,10.52
2022-10-20T06:39:04.640Z,9.40
2022-10-20T06:41:31.946Z,8.55
2022-10-20T06:43:59.935Z,11.15
2022-10-20T06:46:28.940Z,8.40
2022-10-20T06:48:58.697Z,9.20
2022-10-20T06:51:26.137Z,11.95
2022-10-20T06:53:53.028Z,8.90
2022-10-20T06:56:30.401Z,10.25
2022-10-20T06:58:58.281Z,10.07
2022-10-20T07:01:30.922Z,8.68
2022-10-20T07:04:06.917Z,9.50
2022-10-20T07:06:41.619Z,9.85
2022-10-20T07:09:15.645Z,8.20
2022-10-20T07:11:42.936Z,12.35
2022-10-20T07:14:10.745Z,8.75
2022-10-20T07:16:37.605Z,11.80
2022-10-20T07:19:04.717Z,9.82
2022-10-20T07:21:35.716Z,8.77
2022-10-20T07:24:05.686Z,9.75
2022-10-20T07:26:35.532Z,9.00
2022-10-20T07:29:03.924Z,8.73
2022-10-20T07:31:36.290Z,8.27
2022-10-20T07:34:20.326Z,8.70
2022-10-20T07:36:51.603Z,8.15
2022-10-20T07:39:18.359Z,10.70
2022-10-20T07:41:47.418Z,9.63
2022-10-20T07:44:14.872Z,6.72
2022-10-20T07:46:41.744Z,9.32
2022-10-20T07:49:42.380Z,9.90
2022-10-20T07:51:55.536Z,8.18
2022-10-20T07:54:22.567Z,9.45
2022-10-20T07:56:49.682Z,9.15
2022-10-20T07:59:16.671Z,8.82
2022-10-20T08:01:44.129Z,9.43
2022-10-20T08:04:11.520Z,8.10
2022-10-20T08:06:39.129Z,7.10
2022-10-20T08:09:06.447Z,7.28
2022-10-20T08:11:33.420Z,7.05
2022-10-20T08:14:00.165Z,8.82
2022-10-20T08:16:28.980Z,7.55
2022-10-20T08:19:05.692Z,6.15
2022-10-20T08:21:32.775Z,7.63
2022-10-20T08:23:59.697Z,8.82
2022-10-20T08:26:26.728Z,6.70
2022-10-20T08:28:54.644Z,7.93
2022-10-20T08:31:21.643Z,6.68
2022-10-20T08:33:52.351Z,11.23
2022-10-20T08:36:20.910Z,8.25
2022-10-20T08:38:47.870Z,8.15
2022-10-20T08:41:23.345Z,5.85
2022-10-20T08:43:52.351Z,7.28
2022-10-20T08:46:20.946Z,6.97
2022-10-20T08:48:48.480Z,6.43
2022-10-20T08:51:19.328Z,6.53
2022-10-20T08:53:46.981Z,6.65
2022-10-20T08:56:14.651Z,4.90
2022-10-20T08:58:43.958Z,9.68
2022-10-20T09:01:31.015Z,4.43
2022-10-20T09:04:15.027Z,5.55
2022-10-20T09:06:44.122Z,5.22
2022-10-20T09:09:17.381Z,5.82
2022-10-20T09:11:44.594Z,5.50
2022-10-20T09:14:12.152Z,5.82
2022-10-20T09:16:58.642Z,3.95
2022-10-20T09:19:27.255Z,4.90
2022-10-20T09:21:57.742Z,5.65
2022-10-20T09:24:27.319Z,3.65
2022-10-20T09:27:01.459Z,3.70
2022-10-20T09:29:36.766Z,5.82
2022-10-20T09:32:22.363Z,5.85
2022-10-20T09:34:50.323Z,6.85
2022-10-20T09:37:19.075Z,3.10
2022-10-20T09:39:56.190Z,3.40
2022-10-20T09:42:30.059Z,5.65
2022-10-20T09:45:15.364Z,3.65
2022-10-20T09:47:47.092Z,3.92
2022-10-20T09:50:30.397Z,3.65
2022-10-20T09:52:58.388Z,4.50
2022-10-20T09:55:37.499Z,3.63
2022-10-20T09:58:05.264Z,4.28
2022-10-20T10:00:37.154Z,3.55
2022-10-20T10:03:11.134Z,4.60
2022-10-20T10:05:37.876Z,4.50
2022-10-20T10:08:04.707Z,4.80
2022-10-20T10:10:31.979Z,3.97
2022-10-20T10:13:01.020Z,3.65
2022-10-20T10:15:27.856Z,4.82
2022-10-20T10:17:55.169Z,3.63
2022-10-20T10:20:21.944Z,2.97
2022-10-20T10:22:49.054Z,3.80
2022-10-20T10:25:25.632Z,3.22
2022-10-20T10:28:06.852Z,3.17
2022-10-20T10:30:36.355Z,2.78
2022-10-20T10:33:24.422Z,2.40
2022-10-20T10:35:51.223Z,2.90
2022-10-20T10:38:18.025Z,3.28
2022-10-20T10:41:02.121Z,4.13
2022-10-20T10:43:56.248Z,2.28
2022-10-20T10:46:28.027Z,2.88
2022-10-20T10:49:13.660Z,5.40
2022-10-20T10:51:46.277Z,2.78
2022-10-20T10:54:43.018Z,2.50
2022-10-20T10:57:22.036Z,2.83
2022-10-20T10:59:49.951Z,2.65
2022-10-20T11:02:24.208Z,2.80
2022-10-20T11:05:06.338Z,2.65
2022-10-20T11:07:39.195Z,2.30
2022-10-20T11:10:21.483Z,2.47
2022-10-20T11:13:16.472Z,2.50
2022-10-20T11:15:55.619Z,2.30
2022-10-20T11:18:49.788Z,3.78
2022-10-20T11:21:37.333Z,4.43
2022-10-20T11:24:22.857Z,2.78
2022-10-20T11:26:54.541Z,2.47
2022-10-20T11:29:33.613Z,2.97
2022-10-20T11:32:09.629Z,3.97
2022-10-20T11:34:43.371Z,2.55
2022-10-20T11:37:22.337Z,3.20
2022-10-20T11:40:04.558Z,2.70
2022-10-20T11:42:41.903Z,3.00
2022-10-20T11:45:32.862Z,3.67
2022-10-20T11:48:25.019Z,3.72
2022-10-20T11:51:13.086Z,5.00
2022-10-20T11:54:04.490Z,3.22
2022-10-20T11:57:02.348Z,3.85
2022-10-20T11:59:52.459Z,3.42
2022-10-20T12:02:19.305Z,3.58
2022-10-20T12:04:52.309Z,2.67
2022-10-20T12:07:31.203Z,3.13
2022-10-20T12:10:14.036Z,5.55
2022-10-20T12:12:55.976Z,3.00
2022-10-20T12:15:28.051Z,2.97
2022-10-20T12:18:07.048Z,3.33
2022-10-20T12:20:36.765Z,2.78
2022-10-20T12:23:03.683Z,2.95
2022-10-20T12:25:30.388Z,3.08
2022-10-20T12:28:25.090Z,3.05
2022-10-20T12:31:03.939Z,2.42
2022-10-20T12:33:49.464Z,3.38
2022-10-20T12:36:19.232Z,2.90
2022-10-20T12:39:09.232Z,2.90
2022-10-20T12:41:54.185Z,4.75
2022-10-20T12:44:21.508Z,2.08
2022-10-20T12:47:05.087Z,2.78
2022-10-20T12:49:35.503Z,2.60
2022-10-20T12:52:04.575Z,2.70
2022-10-20T12:54:39.591Z,2.53
2022-10-20T12:57:23.528Z,6.65
2022-10-20T12:59:50.281Z,2.70
2022-10-20T13:02:16.963Z,3.20
2022-10-20T13:05:15.039Z,3.33
2022-10-20T13:07:48.176Z,2.67
2022-10-20T13:10:26.967Z,2.88
2022-10-20T13:12:54.828Z,3.15
2022-10-20T13:17:56.222Z,2.38
2022-10-20T13:20:38.679Z,2.17
2022-10-20T13:23:05.999Z,2.47
2022-10-20T13:25:46.312Z,4.40
2022-10-20T13:28:13.003Z,4.03
2022-10-20T13:30:58.686Z,3.03
2022-10-20T13:33:58.798Z,3.53
2022-10-20T13:36:58.725Z,3.10
2022-10-20T13:39:44.208Z,2.47
2022-10-20T13:42:29.510Z,3.25
2022-10-20T13:44:56.204Z,3.13
2022-10-20T13:47:44.221Z,2.85
2022-10-20T13:50:13.919Z,5.28
2022-10-20T13:52:46.836Z,9.77
2022-10-20T13:55:19.864Z,3.38
2022-10-20T13:57:55.088Z,2.92
2022-10-20T14:00:32.087Z,4.90
2022-10-20T14:03:04.368Z,2.47
2022-10-20T14:05:38.269Z,6.65
2022-10-20T14:08:09.768Z,3.47
2022-10-20T14:10:48.162Z,3.92
2022-10-20T14:13:19.001Z,3.33
2022-10-20T14:15:48.641Z,3.13
2022-10-20T14:18:27.140Z,3.30
2022-10-20T14:20:55.589Z,3.30
2022-10-20T14:23:23.137Z,2.60
2022-10-20T14:25:50.828Z,4.95
2022-10-20T14:28:19.765Z,5.00
2022-10-20T14:30:48.498Z,6.65
2022-10-20T14:33:18.546Z,3.58
2022-10-20T14:35:50.521Z,3.92
2022-10-20T14:38:23.298Z,3.63
2022-10-20T14:40:55.656Z,3.25
2022-10-20T14:43:39.180Z,2.30
2022-10-20T14:46:08.209Z,2.60
2022-10-20T14:48:45.680Z,3.58
2022-10-20T14:51:36.276Z,4.25
2022-10-20T14:54:21.355Z,3.10
2022-10-20T14:56:52.324Z,5.25
2022-10-20T14:59:24.673Z,6.38
2022-10-20T15:02:12.564Z,6.30
2022-10-20T15:04:43.777Z,4.97
2022-10-20T15:07:18.309Z,4.95
2022-10-20T15:09:47.890Z,5.30
2022-10-20T15:12:18.977Z,6.07
2022-10-20T15:14:51.549Z,5.90
2022-10-20T15:17:30.523Z,3.88
2022-10-20T15:19:57.362Z,3.22
2022-10-20T15:22:24.159Z,6.13
2022-10-20T15:24:51.152Z,5.60
2022-10-20T15:27:18.236Z,6.20
2022-10-20T15:29:51.114Z,3.88
2022-10-20T15:32:18.624Z,4.78
2022-10-20T15:34:45.514Z,4.85
2022-10-20T15:37:12.264Z,5.85
2022-10-20T15:39:38.977Z,6.15
2022-10-20T15:42:11.197Z,7.47
2022-10-20T15:44:38.263Z,6.07
2022-10-20T15:47:05.091Z,6.63
2022-10-20T15:49:31.994Z,6.68
2022-10-20T15:51:58.747Z,7.68
2022-10-20T15:54:25.597Z,5.15
2022-10-20T15:56:52.512Z,8.68
2022-10-20T15:59:19.405Z,7.75
2022-10-20T16:01:46.193Z,6.55
2022-10-20T16:04:26.376Z,5.78
2022-10-20T16:06:57.788Z,7.50
2022-10-20T16:09:26.142Z,7.45
2022-10-20T16:11:52.943Z,6.20
2022-10-20T16:14:19.739Z,8.50
2022-10-20T16:16:46.549Z,8.82
2022-10-20T16:19:13.851Z,11.45
2022-10-20T16:21:41.372Z,10.43
2022-10-20T16:24:08.308Z,10.50
2022-10-20T16:26:35.214Z,11.88
2022-10-20T16:29:01.996Z,7.38
2022-10-20T16:31:29.447Z,8.73
2022-10-20T16:34:00.237Z,9.73
2022-10-20T16:36:27.098Z,9.95
2022-10-20T16:38:57.577Z,7.22
2022-10-20T16:41:24.470Z,6.60
2022-10-20T16:43:51.215Z,6.38
2022-10-20T16:46:18.267Z,5.18
2022-10-20T16:48:48.057Z,8.75
2022-10-20T16:51:16.098Z,8.48
2022-10-20T16:53:43.008Z,5.88
2022-10-20T16:56:09.819Z,6.65
2022-10-20T16:58:36.616Z,7.35
2022-10-20T17:01:09.802Z,6.22
2022-10-20T17:03:37.831Z,6.88
2022-10-20T17:06:07.001Z,7.32
2022-10-20T17:08:35.096Z,12.20
2022-10-20T17:11:04.384Z,7.28
2022-10-20T17:13:31.510Z,7.07
2022-10-20T17:16:04.382Z,7.35
2022-10-20T17:18:31.960Z,7.60
2022-10-20T17:20:58.838Z,6.75
2022-10-20T17:23:26.063Z,6.47
2022-10-20T17:25:53.547Z,7.88
2022-10-20T17:28:20.312Z,7.93
2022-10-20T17:30:48.053Z,6.28
2022-10-20T17:33:15.195Z,5.03
2022-10-20T17:35:47.256Z,4.55
2022-10-20T17:38:14.009Z,8.30
2022-10-20T17:40:40.723Z,5.22
2022-10-20T17:43:07.643Z,5.13
2022-10-20T17:45:37.474Z,5.68
2022-10-20T17:48:05.556Z,5.38
2022-10-20T17:50:32.510Z,4.63
2022-10-20T17:53:01.316Z,6.45
2022-10-20T17:55:28.569Z,5.10
2022-10-20T17:57:56.160Z,6.95
2022-10-20T18:00:43.802Z,6.38
2022-10-20T18:03:09.733Z,5.88
2022-10-20T18:05:36.732Z,5.00
2022-10-20T18:08:03.564Z,6.28
2022-10-20T18:10:30.345Z,5.68
2022-10-20T18:12:57.173Z,5.43
2022-10-20T18:15:23.925Z,6.70
2022-10-20T18:17:50.692Z,4.25
2022-10-20T18:20:17.701Z,7.70
2022-10-20T18:22:45.556Z,4.78
2022-10-20T18:25:12.343Z,5.30
2022-10-20T18:27:39.101Z,4.05
2022-10-20T18:30:08.074Z,4.85
2022-10-20T18:32:36.350Z,5.65
2022-10-20T18:35:03.554Z,6.22
2022-10-20T18:37:30.337Z,4.97
2022-10-20T18:39:57.284Z,4.93
2022-10-20T18:42:24.102Z,5.90
2022-10-20T18:44:50.923Z,7.68
2022-10-20T18:47:17.682Z,12.80
2022-10-20T18:49:44.480Z,5.45
2022-10-20T18:52:11.215Z,5.43
2022-10-20T18:54:38.061Z,5.28
2022-10-20T18:57:04.824Z,4.65
2022-10-20T18:59:31.598Z,7.10
2022-10-20T19:01:58.365Z,5.13
2022-10-20T19:04:25.132Z,5.13
2022-10-20T19:06:52.219Z,6.15
2022-10-20T19:09:20.815Z,6.82
2022-10-20T19:14:15.407Z,4.93
2022-10-20T19:16:44.852Z,7.20
2022-10-20T19:19:11.921Z,6.93
2022-10-20T19:21:38.916Z,6.15
2022-10-20T19:24:12.388Z,6.13
2022-10-20T19:26:44.901Z,9.90
2022-10-20T19:29:17.871Z,8.27
2022-10-20T19:31:50.216Z,4.63
2022-10-20T19:34:23.279Z,6.43
2022-10-20T19:36:50.362Z,6.50
2022-10-20T19:39:19.997Z,6.80
2022-10-20T19:41:47.212Z,7.57
2022-10-20T19:44:15.557Z,5.53
2022-10-20T19:46:44.224Z,7.25
2022-10-20T19:51:38.482Z,6.30
2022-10-20T19:54:05.784Z,6.28
2022-10-20T19:56:32.833Z,6.20
2022-10-20T19:59:04.961Z,5.82
2022-10-20T20:01:32.357Z,7.25
2022-10-20T20:03:59.880Z,5.57
2022-10-20T20:06:28.499Z,6.82
2022-10-20T20:08:59.195Z,8.77
2022-10-20T20:11:29.592Z,6.00
2022-10-20T20:14:01.972Z,7.15
2022-10-20T20:16:29.494Z,8.68
2022-10-20T20:18:56.385Z,5.85
2022-10-20T20:21:23.958Z,6.68
2022-10-20T20:23:59.332Z,5.95
2022-10-20T20:26:28.251Z,4.82
2022-10-20T20:28:56.132Z,7.47
2022-10-20T20:31:23.168Z,6.95
2022-10-20T20:33:50.351Z,4.72
2022-10-20T20:36:17.210Z,4.70
2022-10-20T20:38:44.030Z,5.28
2022-10-20T20:41:13.614Z,4.95
2022-10-20T20:43:41.011Z,5.20
2022-10-20T20:46:11.003Z,4.60
2022-10-20T20:48:38.412Z,6.03
2022-10-20T20:51:05.687Z,7.57
2022-10-20T20:56:10.887Z,4.97
2022-10-20T20:58:38.103Z,5.80
2022-10-20T21:01:13.292Z,6.53
2022-10-20T21:03:40.355Z,6.82
2022-10-20T21:06:08.908Z,4.63
2022-10-20T21:08:37.526Z,7.60
2022-10-20T21:11:06.264Z,6.10
2022-10-20T21:13:33.886Z,4.30
2022-10-20T21:16:27.077Z,4.90
2022-10-20T21:18:56.795Z,5.47
2022-10-20T21:21:32.216Z,6.60
2022-10-20T21:24:00.223Z,5.22
2022-10-20T21:26:27.988Z,5.22
2022-10-20T21:28:56.050Z,3.97
2022-10-20T21:31:25.130Z,6.18
2022-10-20T21:33:57.653Z,3.88
2022-10-20T21:36:26.438Z,4.47
2022-10-20T21:41:22.129Z,5.53
2022-10-20T21:43:56.544Z,6.38
2022-10-20T21:46:33.846Z,4.70
2022-10-20T21:49:06.451Z,5.72
2022-10-20T21:51:38.490Z,5.82
2022-10-20T21:54:07.965Z,7.00
2022-10-20T21:56:36.873Z,6.03
2022-10-20T22:01:33.894Z,6.22
2022-10-20T22:04:00.783Z,5.30
2022-10-20T22:06:27.906Z,9.07
2022-10-20T22:08:57.277Z,5.35
2022-10-20T22:11:29.056Z,4.95
2022-10-20T22:13:56.238Z,4.68
2022-10-20T22:16:25.721Z,6.80
2022-10-20T22:18:59.400Z,5.65
2022-10-20T22:21:26.595Z,4.70
2022-10-20T22:23:54.719Z,6.53
2022-10-20T22:26:22.852Z,5.55
2022-10-20T22:28:52.352Z,4.88
2022-10-20T22:31:19.140Z,4.97
2022-10-20T22:33:45.911Z,5.28
2022-10-20T22:36:12.690Z,5.38
2022-10-20T22:38:39.415Z,5.25
2022-10-20T22:41:06.267Z,4.97
2022-10-20T22:43:33.051Z,8.45
2022-10-20T22:45:59.802Z,7.05
2022-10-20T22:48:26.613Z,5.75
2022-10-20T22:50:53.848Z,6.68
2022-10-20T22:53:20.645Z,4.90
2022-10-20T22:55:47.587Z,6.20
2022-10-20T22:58:14.355Z,6.22
2022-10-20T23:00:42.252Z,5.18
2022-10-20T23:03:09.804Z,4.97
2022-10-20T23:05:37.432Z,5.13
2022-10-20T23:08:04.823Z,6.38
2022-10-20T23:10:31.556Z,5.43
2022-10-20T23:12:58.338Z,6.03
2022-10-20T23:15:25.065Z,5.70
2022-10-20T23:17:51.779Z,4.05
2022-10-20T23:20:18.536Z,4.95
2022-10-20T23:22:45.679Z,6.03
2022-10-20T23:25:12.447Z,5.43
2022-10-20T23:27:39.619Z,6.95
2022-10-20T23:30:07.206Z,7.93
2022-10-20T23:32:33.990Z,5.90
2022-10-20T23:35:00.747Z,6.40
2022-10-20T23:37:27.495Z,5.85
2022-10-20T23:39:54.287Z,7.82
2022-10-20T23:42:21.218Z,5.18
2022-10-20T23:44:47.968Z,6.85
2022-10-20T23:47:14.776Z,6.22
2022-10-20T23:49:41.495Z,5.75
2022-10-20T23:52:08.230Z,6.68
2022-10-20T23:54:35.002Z,7.85
2022-10-20T23:57:02.562Z,7.55
2022-10-20T23:59:29.286Z,5.95
